Altamahaw, North Carolina
Current Conditions -  °F | °C
As of 6:54 PM on Wednesday 17 Dec 2014 (Local Time) from KBUY Reporting Station
Clear Clear  
Wind Chill: 46°   Ceiling: Unl
Heat Index: 46°   Visibility: 10mi
Dew Point: 32°   Wind: 3mph
Humidity: 58%   Direction: 190°S
Pressure: 30.06"   Gusts: NA
Location:  36.18°N, 79.51°W
Report Text: KBUY 172354Z AUTO 19003KT 10SM CLR 08/00 A3006 RMK AO2 SLP180 T00780000 10150 20067 51013
Loading
Personal Weather Stations






























Interactive Weather Map New forecast layout! Learn more

10-Day Weather Forecast

Advertisements
Track Severe Weather on mobile